WEATHER DATA

YESTERDAY
Time Temp. Dewp. Hum. Wind dir Wind speed Wind gust Bar. 1h Prec. 24h Prec.
00:04 -1.7 -4.8 77 152 1.7 3.1 1031.2 0.0000 0.0000
00:13 -1.7 -4.6 78 144 2.2 3.9 1031.2 0.0000 0.0000
00:24 -1.8 -4.7 78 143 1.7 2.8 1031.2 0.0000 0.0000
00:34 -1.9 -4.8 78 146 1.4 3.1 1031.2 0.0000 0.0000
00:44 -2 -4.9 78 157 1.4 2.5 1031.2 0.0000 0.0000
00:54 -2 -4.9 78 147 1.9 2.8 1031.1 0.0000 0.0000
01:05 -1.9 -4.8 78 144 1.9 3.3 1031.1 0.0000 0.0000
01:14 -1.9 -5 77 145 2.2 3.3 1031.1 0.0000 0.0000
01:24 -1.8 -4.9 77 148 1.7 3.1 1031 0.0000 0.0000
01:35 -1.9 -5 77 145 1.4 3.1 1030.8 0.0000 0.0000
01:45 -1.8 -4.9 77 163 0.8 2.5 1030.6 0.0000 0.0000
01:54 -1.7 -4.8 77 148 2.2 3.3 1030.4 0.0000 0.0000
02:05 -1.7 -4.8 77 147 1.4 2.5 1030.3 0.0000 0.0000
02:15 -1.7 -4.8 77 135 0.6 1.7 1030.2 0.0000 0.0000
02:25 -1.7 -4.8 77 157 0.8 1.7 1030.3 0.0000 0.0000
02:35 -1.7 -4.8 77 113 0.8 1.7 1030.3 0.0000 0.0000
02:45 -1.9 -5.1 76 56 0.3 0.8 1030.4 0.0000 0.0000
02:55 -1.9 -5 77 161 0.3 0.6 1030.4 0.0000 0.0000
03:05 -2 -5.1 77 181 0.6 1.7 1030.4 0.0000 0.0000
03:15 -1.9 -4.8 78 141 1.7 2.5 1030.3 0.0000 0.0000
03:26 -1.8 -4.9 77 142 1.7 2.2 1030.2 0.0000 0.0000
03:35 -1.7 -4.8 77 147 1.7 3.1 1030.1 0.0000 0.0000
03:45 -1.9 -5 77 135 0.6 1.4 1030 0.0000 0.0000
03:56 -1.9 -4.8 78 128 1.1 2.2 1030 0.0000 0.0000
04:06 -1.9 -5 77 147 1.4 2.5 1030.1 0.0000 0.0000
04:16 -1.9 -5 77 146 1.7 2.8 1030.1 0.0000 0.0000
04:26 -2 -5.1 77 147 0.6 1.4 1030.1 0.0000 0.0000
04:36 -2.1 -5.2 77 127 0.8 1.4 1030.1 0.0000 0.0000
04:46 -2 -5.1 77 137 0.6 1.1 1030.1 0.0000 0.0000
04:56 -1.7 -5 76 142 0.8 1.7 1030 0.0000 0.0000
05:07 -1.9 -5.1 76 195 0.8 1.7 1030 0.0000 0.0000
05:16 -1.9 -5 77 203 1.7 2.8 1030 0.0000 0.0000
05:26 -1.8 -5 76 195 1.1 1.9 1029.7 0.0000 0.0000
05:36 -1.9 -5.1 76 172 0.8 2.2 1029.7 0.0000 0.0000
05:47 -1.7 -5 76 143 1.4 2.2 1029.7 0.0000 0.0000
05:57 -1.5 -4.9 75 133 1.4 3.6 1029.7 0.0000 0.0000
06:06 -1.9 -5.3 75 90 0.3 0.6 1029.9 0.0000 0.0000
06:17 -2.2 -5.4 76 225 0.3 0.8 1029.9 0.0000 0.0000
06:27 -2.2 -5.3 77 123 0.6 1.4 1029.9 0.0000 0.0000
06:37 -2.1 -5.2 77 132 1.1 1.9 1030 0.0000 0.0000
06:47 -2.1 -5.2 77 141 1.7 2.8 1030 0.0000 0.0000
06:57 -2.1 -5.3 76 142 1.9 3.1 1030 0.0000 0.0000
07:07 -2.1 -5.3 76 146 1.9 3.1 1030 0.0000 0.0000
07:17 -2 -5.6 74 146 2.5 3.6 1029.9 0.0000 0.0000
07:28 -2.1 -5.7 74 140 1.9 3.6 1029.9 0.0000 0.0000
07:37 -2.1 -5.7 74 140 1.9 3.1 1030 0.0000 0.0000
07:47 -2.2 -5.9 73 142 1.9 3.3 1030 0.0000 0.0000
07:57 -2.1 -6 72 144 1.7 3.1 1030.2 0.0000 0.0000
08:08 -2.1 -6.1 71 151 1.9 3.3 1030.2 0.0000 0.0000
08:18 -2.1 -6 72 145 1.7 3.1 1030.3 0.0000 0.0000
08:27 -2.1 -6.1 71 146 1.9 3.6 1030.2 0.0000 0.0000
08:38 -2.1 -6.3 70 152 1.4 2.8 1030.2 0.0000 0.0000
08:48 -1.9 -6.4 68 153 1.4 2.5 1030.2 0.0000 0.0000
08:58 -1.7 -6.2 68 148 2.2 3.3 1030.1 0.0000 0.0000
09:08 -1.7 -6.1 69 117 0.6 1.7 1030.1 0.0000 0.0000
09:18 -1.7 -6.1 69 45 0.3 0.6 1030.1 0.0000 0.0000
09:28 -1.8 -6.2 69 0.6 1.4 1030.3 0.0000 0.0000
09:38 -2 -6.2 70 189 0.6 1.1 1030.5 0.0000 0.0000
09:49 -1.9 -6.1 70 90 0.3 1.1 1030.5 0.0000 0.0000
09:59 -1.9 -6.1 70 80 0.8 1.4 1030.6 0.0000 0.0000
10:08 -1.8 -6 70 122 0.6 0.8 1030.8 0.0000 0.0000
10:18 -1.7 -5.9 70 158 0.3 0.8 1030.9 0.0000 0.0000
10:29 -1.5 -5.7 70 117 0.6 1.1 1030.9 0.0000 0.0000
10:39 -1.2 -5.4 70 135 0.6 1.4 1030.9 0.0000 0.0000
10:48 -1.1 -5.3 70 140 0.6 1.1 1031 0.0000 0.0000
10:59 -0.9 -5.3 69 145 0.6 1.1 1030.9 0.0000 0.0000
11:09 -0.8 -5.2 69 195 0.8 1.4 1030.8 0.0000 0.0000
11:19 -0.6 -5.2 68 115 0.6 1.1 1030.6 0.0000 0.0000
11:29 -0.4 -5.2 67 90 0.6 1.1 1030.6 0.0000 0.0000
11:39 0 -5.1 65 59 0.6 1.4 1030.6 0.0000 0.0000
11:49 -0.1 -5 66 75 0.6 1.1 1030.6 0.0000 0.0000
11:59 0 -5 66 90 0.6 1.1 1030.6 0.0000 0.0000
12:09 0.1 -4.9 66 90 0.3 0.8 1030.5 0.0000 0.0000
12:20 0.3 -4.7 66 109 0.6 1.1 1030.4 0.0000 0.0000
12:29 0.4 -4.6 66 90 0.8 1.1 1030.5 0.0000 0.0000
12:39 0.5 -4.5 66 207 0.8 1.4 1030.3 0.0000 0.0000
12:50 0.6 -4.3 67 229 0.6 1.1 1030.1 0.0000 0.0000
13:00 0.7 -4.4 66 126 0.3 0.8 1029.9 0.0000 0.0000
13:10 1 -4.3 65 45 0.3 0.8 1029.6 0.0000 0.0000
13:20 1.4 -4.3 63 62 0.6 1.1 1029.5 0.0000 0.0000
13:30 1.4 -4.1 64 158 0.3 1.1 1029.5 0.0000 0.0000
13:40 1.6 -4 64 41 0.8 1.4 1029.4 0.0000 0.0000
13:50 1.9 -3.9 63 55 1.1 1.7 1029.4 0.0000 0.0000
14:01 2.1 -3.9 62 37 0.8 1.4 1029.6 0.0000 0.0000
14:10 2 -4.2 61 30 1.1 1.7 1029.7 0.0000 0.0000
14:20 1.8 -4.4 61 50 0.6 1.1 1029.9 0.0000 0.0000
14:30 1.6 -4.1 63 0 0.6 0.8 1029.7 0.0000 0.0000
14:41 1.5 -4.2 63 65 0.6 1.7 1029.9 0.0000 0.0000
14:50 1.5 -4.2 63 41 0.3 1.1 1029.9 0.0000 0.0000
15:00 1.6 -4.5 61 33 1.1 1.7 1030 0.0000 0.0000
15:11 1.4 -4.5 62 41 0.3 0.8 1029.9 0.0000 0.0000
15:21 1.4 -4.7 61 45 0.6 1.1 1029.9 0.0000 0.0000
15:31 1.3 -4.6 62 53 0.3 0.6 1030 0.0000 0.0000
15:41 1.2 -4.7 62 64 0.6 1.1 1030 0.0000 0.0000
15:51 1.3 -4.6 62 90 0.6 1.1 1029.9 0.0000 0.0000
16:01 1.2 -4.7 62 71 0.8 1.1 1029.9 0.0000 0.0000
16:11 1 -4.5 64 90 0.6 1.1 1029.6 0.0000 0.0000
16:22 0.7 -4.5 65 126 0.6 0.8 1029.6 0.0000 0.0000
16:32 0.4 -4.4 67 152 0.6 1.4 1029.6 0.0000 0.0000
16:41 0.2 -4.4 68 144 0.8 1.7 1029.6 0.0000 0.0000
16:51 0 -4.8 67 135 1.1 1.7 1030 0.0000 0.0000
17:02 -0.4 -5 68 90 0.3 0.8 1030.2 0.0000 0.0000
17:12 -0.7 -5.3 68 165 0.6 1.1 1030.2 0.0000 0.0000
17:22 -0.8 -5.2 69 147 1.4 2.5 1030.2 0.0000 0.0000
17:32 -1 -5.2 70 139 1.4 2.8 1030.4 0.0000 0.0000
17:42 -1.2 -5.4 70 136 0.8 1.9 1030.6 0.0000 0.0000
17:52 -1.3 -5.7 69 150 1.7 3.1 1030.6 0.0000 0.0000
18:02 -1.5 -5.7 70 147 1.4 2.5 1030.6 0.0000 0.0000
18:13 -1.5 -5.9 69 147 1.9 3.3 1030.5 0.0000 0.0000
18:22 -1.6 -6 69 141 1.7 3.1 1030.6 0.0000 0.0000
18:32 -1.8 -6.2 69 152 1.7 4.4 1030.5 0.0000 0.0000
18:43 -1.8 -6.2 69 142 2.2 3.3 1030.5 0.0000 0.0000
18:53 -1.8 -6.2 69 141 2.2 3.3 1030.5 0.0000 0.0000
19:02 -1.9 -6.3 69 145 2.2 3.3 1030.5 0.0000 0.0000
19:12 -2 -6.4 69 147 2.2 3.9 1030.5 0.0000 0.0000
19:23 -2 -6.4 69 148 1.9 3.1 1030.5 0.0000 0.0000
19:33 -2.1 -6.5 69 146 1.9 3.1 1030.4 0.0000 0.0000
19:43 -2.2 -6.4 70 149 1.1 2.5 1030.3 0.0000 0.0000
19:53 -2.1 -6.5 69 144 1.9 2.8 1030.2 0.0000 0.0000
20:03 -2 -6.4 69 142 1.7 2.8 1030.3 0.0000 0.0000
20:13 -2 -6.5 68 155 1.4 3.6 1030.2 0.0000 0.0000
20:23 -2.1 -6.5 69 148 1.4 3.1 1030.3 0.0000 0.0000
20:34 -2.2 -6.6 69 149 1.1 1.9 1030.2 0.0000 0.0000
20:44 -2.2 -6.6 69 143 1.9 3.1 1030.2 0.0000 0.0000
20:53 -2.2 -6.7 68 146 1.7 3.1 1030.3 0.0000 0.0000
21:04 -2.1 -6.6 68 146 2.2 3.1 1030.3 0.0000 0.0000
21:14 -2.1 -6.6 68 143 1.9 3.3 1030.3 0.0000 0.0000
21:24 -2 -6.7 67 147 1.9 3.9 1030.2 0.0000 0.0000
21:33 -2 -6.9 66 150 2.2 4.2 1030 0.0000 0.0000
21:44 -2.1 -7 66 149 1.4 2.8 1030 0.0000 0.0000
21:54 -1.9 -6.8 66 139 1.9 3.3 1030 0.0000 0.0000
22:04 -2 -6.9 66 140 1.4 2.8 1030.1 0.0000 0.0000
22:14 -2 -6.9 66 149 1.9 3.1 1030.1 0.0000 0.0000
22:24 -1.9 -6.8 66 144 1.9 3.3 1030 0.0000 0.0000
22:34 -1.9 -7 65 151 1.9 2.8 1029.9 0.0000 0.0000
22:44 -1.9 -7 65 146 1.4 2.8 1029.7 0.0000 0.0000
22:55 -1.7 -7.1 63 153 1.7 2.8 1029.5 0.0000 0.0000
23:05 -1.6 -7 63 145 2.5 3.6 1029.5 0.0000 0.0000
23:14 -1.7 -7.1 63 148 1.4 3.3 1029.5 0.0000 0.0000
23:25 -1.7 -7.1 63 148 1.9 3.1 1029.4 0.0000 0.0000
23:35 -1.7 -7.1 63 141 0.8 2.2 1029.4 0.0000 0.0000
23:45 -1.9 -7.1 64 204 0.6 1.1 1029.5 0.0000 0.0000
23:55 -1.9 -7.3 63 157 1.1 2.5 1029.4 0.0000

DAY STATISTIC

2022-01-26
TEMPERATURE
AVERAGE
-1.2
HIGH
2.1
14:01
LOW
-2.2
06:17
PRESSURE
AVERAGE
1030.2
HIGH
1031.2
00:04
LOW
1029.4
13:40
DEWPOINT
AVERAGE
-5.5
HIGH
-3.9
13:50
LOW
-7.3
23:55
HUMIDITY
AVERAGE
70
HIGH
78
00:13
LOW
61
14:10
WIND SPEED
AVERAGE
1.2
HIGH
2.5
07:17
WIND GUST
AVERAGE
2.2
HIGH
4.4
18:32
WIND DIRECTION
PREVAILING
SE
66.4%
N
0.7
NE
11.9
E
9.1
SE
66.4
S
9.1
SW
2.1
W
0.0
NW
0.0
PRECIPITATION
RAIN HOUR
0.0
RAIN DAY
0.0
TEMPERATURE (°C)
LOW
-2.2
HIGH
2.1
AVERAGE
-1.2
PRESSURE (hpa)
LOW
1029.4
HIGH
1031.2
AVERAGE
1030.2
DEVICE